sensor_id;sensor_type;location;lat;lon;timestamp;P1;durP1;ratioP1;P2;durP2;ratioP2
15643;SDS011;7921;43.586;1.408;2022-11-20T20:46:52;8.97;;;5.67;;
15643;SDS011;7921;43.586;1.408;2022-11-20T20:49:17;8.80;;;5.33;;
15643;SDS011;7921;43.586;1.408;2022-11-20T20:51:42;8.43;;;5.27;;
15643;SDS011;7921;43.586;1.408;2022-11-20T20:54:08;8.77;;;4.77;;
15643;SDS011;7921;43.586;1.408;2022-11-20T20:56:33;6.93;;;3.90;;
15643;SDS011;7921;43.586;1.408;2022-11-20T20:58:59;6.50;;;3.83;;
15643;SDS011;7921;43.586;1.408;2022-11-20T21:01:24;6.83;;;3.87;;
15643;SDS011;7921;43.586;1.408;2022-11-20T21:03:53;6.37;;;3.70;;
15643;SDS011;7921;43.586;1.408;2022-11-20T21:06:19;8.27;;;3.43;;
15643;SDS011;7921;43.586;1.408;2022-11-20T21:08:45;6.20;;;3.50;;
15643;SDS011;7921;43.586;1.408;2022-11-20T21:11:11;4.67;;;2.57;;
15643;SDS011;7921;43.586;1.408;2022-11-20T21:13:38;6.90;;;3.20;;
15643;SDS011;7921;43.586;1.408;2022-11-20T21:16:05;5.27;;;2.70;;
15643;SDS011;7921;43.586;1.408;2022-11-20T21:18:31;4.57;;;2.40;;
15643;SDS011;7921;43.586;1.408;2022-11-20T21:20:57;3.33;;;2.43;;
15643;SDS011;7921;43.586;1.408;2022-11-20T21:23:44;4.05;;;2.30;;
15643;SDS011;7921;43.586;1.408;2022-11-20T21:26:09;3.77;;;2.20;;
15643;SDS011;7921;43.586;1.408;2022-11-20T21:28:35;4.27;;;3.10;;
15643;SDS011;7921;43.586;1.408;2022-11-20T21:31:11;5.90;;;3.00;;
15643;SDS011;7921;43.586;1.408;2022-11-20T21:33:42;4.17;;;2.60;;
15643;SDS011;7921;43.586;1.408;2022-11-20T21:36:10;3.97;;;2.67;;
15643;SDS011;7921;43.586;1.408;2022-11-20T21:38:37;5.93;;;2.80;;
15643;SDS011;7921;43.586;1.408;2022-11-20T21:41:03;6.17;;;2.70;;
15643;SDS011;7921;43.586;1.408;2022-11-20T21:43:29;5.83;;;2.90;;
15643;SDS011;7921;43.586;1.408;2022-11-20T21:45:59;3.40;;;2.13;;
15643;SDS011;7921;43.586;1.408;2022-11-20T21:48:28;6.33;;;2.83;;
15643;SDS011;7921;43.586;1.408;2022-11-20T21:50:55;3.53;;;2.67;;
15643;SDS011;7921;43.586;1.408;2022-11-20T21:53:20;4.87;;;2.90;;
15643;SDS011;7921;43.586;1.408;2022-11-20T21:55:52;3.57;;;3.00;;
15643;SDS011;7921;43.586;1.408;2022-11-20T21:58:18;6.47;;;3.00;;
15643;SDS011;7921;43.586;1.408;2022-11-20T22:00:44;3.87;;;2.63;;
15643;SDS011;7921;43.586;1.408;2022-11-20T22:03:09;3.53;;;2.40;;
15643;SDS011;7921;43.586;1.408;2022-11-20T22:05:34;5.53;;;3.20;;
15643;SDS011;7921;43.586;1.408;2022-11-20T22:08:00;5.57;;;2.87;;
15643;SDS011;7921;43.586;1.408;2022-11-20T22:10:25;3.83;;;3.10;;
15643;SDS011;7921;43.586;1.408;2022-11-20T22:12:52;4.93;;;2.90;;
15643;SDS011;7921;43.586;1.408;2022-11-20T22:15:37;3.73;;;2.53;;
15643;SDS011;7921;43.586;1.408;2022-11-20T22:18:02;4.20;;;2.60;;
15643;SDS011;7921;43.586;1.408;2022-11-20T22:20:37;5.57;;;2.50;;
15643;SDS011;7921;43.586;1.408;2022-11-20T22:23:03;3.93;;;2.40;;
15643;SDS011;7921;43.586;1.408;2022-11-20T22:25:28;5.07;;;2.67;;
15643;SDS011;7921;43.586;1.408;2022-11-20T22:27:54;5.77;;;2.80;;
15643;SDS011;7921;43.586;1.408;2022-11-20T22:30:19;5.13;;;2.67;;
15643;SDS011;7921;43.586;1.408;2022-11-20T22:32:45;5.80;;;2.43;;
15643;SDS011;7921;43.586;1.408;2022-11-20T22:35:10;3.70;;;2.60;;
15643;SDS011;7921;43.586;1.408;2022-11-20T22:37:35;4.20;;;2.40;;
15643;SDS011;7921;43.586;1.408;2022-11-20T22:40:01;4.27;;;2.40;;
15643;SDS011;7921;43.586;1.408;2022-11-20T22:42:26;5.13;;;2.47;;
15643;SDS011;7921;43.586;1.408;2022-11-20T22:44:51;4.27;;;2.17;;
15643;SDS011;7921;43.586;1.408;2022-11-20T22:47:17;4.70;;;2.40;;
15643;SDS011;7921;43.586;1.408;2022-11-20T22:49:42;4.37;;;2.10;;
15643;SDS011;7921;43.586;1.408;2022-11-20T22:52:07;4.33;;;2.27;;
15643;SDS011;7921;43.586;1.408;2022-11-20T22:54:33;7.10;;;2.80;;
15643;SDS011;7921;43.586;1.408;2022-11-20T22:56:58;4.40;;;2.83;;
15643;SDS011;7921;43.586;1.408;2022-11-20T22:59:24;8.33;;;2.83;;
15643;SDS011;7921;43.586;1.408;2022-11-20T23:01:49;7.83;;;3.00;;
15643;SDS011;7921;43.586;1.408;2022-11-20T23:04:14;6.47;;;2.60;;
15643;SDS011;7921;43.586;1.408;2022-11-20T23:06:40;6.53;;;2.80;;
15643;SDS011;7921;43.586;1.408;2022-11-20T23:09:06;5.40;;;2.60;;
15643;SDS011;7921;43.586;1.408;2022-11-20T23:11:32;5.70;;;2.23;;
15643;SDS011;7921;43.586;1.408;2022-11-20T23:14:00;5.67;;;2.40;;
15643;SDS011;7921;43.586;1.408;2022-11-20T23:16:30;4.23;;;2.13;;
15643;SDS011;7921;43.586;1.408;2022-11-20T23:18:57;7.57;;;2.73;;
15643;SDS011;7921;43.586;1.408;2022-11-20T23:21:24;6.40;;;2.70;;
15643;SDS011;7921;43.586;1.408;2022-11-20T23:23:51;7.67;;;2.73;;
15643;SDS011;7921;43.586;1.408;2022-11-20T23:26:18;3.50;;;2.20;;
15643;SDS011;7921;43.586;1.408;2022-11-20T23:28:46;5.33;;;2.50;;
15643;SDS011;7921;43.586;1.408;2022-11-20T23:31:11;4.97;;;2.10;;
15643;SDS011;7921;43.586;1.408;2022-11-20T23:33:38;4.77;;;2.00;;
15643;SDS011;7921;43.586;1.408;2022-11-20T23:36:04;6.80;;;2.30;;
15643;SDS011;7921;43.586;1.408;2022-11-20T23:38:30;4.87;;;1.97;;
15643;SDS011;7921;43.586;1.408;2022-11-20T23:40:56;5.93;;;2.33;;
15643;SDS011;7921;43.586;1.408;2022-11-20T23:43:22;6.80;;;2.20;;
15643;SDS011;7921;43.586;1.408;2022-11-20T23:45:51;3.63;;;2.00;;
15643;SDS011;7921;43.586;1.408;2022-11-20T23:48:20;7.77;;;2.73;;
15643;SDS011;7921;43.586;1.408;2022-11-20T23:50:47;3.93;;;2.30;;
15643;SDS011;7921;43.586;1.408;2022-11-20T23:53:13;3.87;;;2.27;;
15643;SDS011;7921;43.586;1.408;2022-11-20T23:55:42;4.17;;;2.50;;
15643;SDS011;7921;43.586;1.408;2022-11-20T23:58:11;4.80;;;2.30;;
